YWSX weather

Westonia Airport
Western Australia, Australia

Public forecast

Using degrees Celsius for public forecast. Weather courtesy of forecast.io.

METAR (pilot weather report)

Closest report is RAAF Base Pearce, 137.2 nm (254.2 km) W. Retrieved 2019/04/22 22:00 UTC (6 minutes ago):

YPEA 222200Z 03001KT CAVOK 14/07 Q1023 NOSIG

TAF (pilot weather forecast)

Closest forecast is RAAF Base Pearce, 137.2 nm (254.2 km) W. Retrieved 2019/04/22 18:00 UTC (4 hours ago):

TAF YPEA 221629Z 2218/2312 11003KT CAVOK FM230100 07008KT CAVOK FM230800 21008KT CAVOK